Time;durP1;ratioP1;P1;durP2;ratioP2;P2;SDS_P1;SDS_P2;PMS_P1;PMS_P2;Temp;Humidity;BMP_temperature;BMP_pressure;BME280_temperature;BME280_humidity;BME280_pressure;Samples;Min_cycle;Max_cycle;Signal;HPM_P1;HPM_P2
2022/08/24 00:01:15;;;;;;;;;;;;;;;26.74;64.49;100751.19;5058077;28;1025;-37
2022/08/24 00:03:42;;;;;;;;;;;;;;;26.81;63.89;100742.50;5072618;28;1224;-37
2022/08/24 00:06:12;;;;;;;;;;;;;;;26.73;64.34;100752.16;5072920;28;1076;-36
2022/08/24 00:08:38;;;;;;;;;;;;;;;26.82;64.06;100749.53;5074737;28;1910;-37
2022/08/24 00:11:06;;;;;;;;;;;;;;;26.61;64.65;100749.63;5074947;28;1045;-38
2022/08/24 00:13:33;;;;;;;;;;;;;;;26.71;64.54;100743.47;5074921;28;1731;-40
2022/08/24 00:16:06;;;;;;;;;;;;;;;26.80;63.90;100746.19;5074609;28;1209;-38
2022/08/24 00:18:32;;;;;;;;;;;;;;;26.83;64.02;100745.06;5074555;28;1304;-37
2022/08/24 00:21:00;;;;;;;;;;;;;;;26.75;64.04;100745.69;5074212;28;1568;-41
2022/08/24 00:23:28;;;;;;;;;;;;;;;26.80;64.16;100742.66;5073801;28;1296;-42
2022/08/24 00:25:54;;;;;;;;;;;;;;;26.83;64.18;100737.03;5073244;28;1111;-39
2022/08/24 00:28:21;;;;;;;;;;;;;;;26.70;64.53;100736.41;5068015;28;1985;-44
2022/08/24 00:30:48;;;;;;;;;;;;;;;26.79;64.39;100739.09;5054291;28;1519;-42
2022/08/24 00:33:15;;;;;;;;;;;;;;;26.74;64.61;100732.50;5054454;28;1276;-41
2022/08/24 00:35:41;;;;;;;;;;;;;;;26.76;64.58;100736.72;5054322;28;1171;-43
2022/08/24 00:38:08;;;;;;;;;;;;;;;26.79;64.67;100733.75;5054094;28;1188;-39
2022/08/24 00:40:36;;;;;;;;;;;;;;;26.81;64.76;100736.34;5053068;28;1145;-42
2022/08/24 00:43:05;;;;;;;;;;;;;;;26.61;65.51;100738.94;5054287;28;1201;-42
2022/08/24 00:45:36;;;;;;;;;;;;;;;26.62;65.61;100734.44;5053167;28;1236;-41
2022/08/24 00:48:10;;;;;;;;;;;;;;;26.69;65.26;100732.06;5053807;28;2007;-42
2022/08/24 00:50:42;;;;;;;;;;;;;;;26.69;65.43;100729.41;5054109;28;1083;-40
2022/08/24 00:53:11;;;;;;;;;;;;;;;26.61;65.45;100738.94;5053832;28;1363;-40
2022/08/24 00:55:42;;;;;;;;;;;;;;;26.63;65.51;100738.78;5053692;28;1082;-39
2022/08/24 00:58:13;;;;;;;;;;;;;;;26.69;65.42;100734.75;5053748;28;1264;-42
2022/08/24 01:00:47;;;;;;;;;;;;;;;26.52;65.81;100738.94;5053808;28;1010;-39
2022/08/24 01:03:14;;;;;;;;;;;;;;;26.53;65.72;100730.78;5054008;28;1197;-43
2022/08/24 01:05:41;;;;;;;;;;;;;;;26.62;65.42;100729.13;5053829;28;1116;-41
2022/08/24 01:08:09;;;;;;;;;;;;;;;26.61;65.54;100732.75;5053701;28;1993;-40
2022/08/24 01:10:38;;;;;;;;;;;;;;;26.63;65.79;100735.31;5053633;28;1046;-40
2022/08/24 01:13:06;;;;;;;;;;;;;;;26.63;66.07;100731.63;5053628;28;1190;-41
2022/08/24 01:15:36;;;;;;;;;;;;;;;26.66;65.86;100729.69;5053703;28;1019;-43
2022/08/24 01:20:54;;;;;;;;;;;;;;;26.67;65.99;100731.34;5053160;28;974;-41
2022/08/24 01:23:31;;;;;;;;;;;;;;;26.67;65.85;100732.19;5053406;28;1407;-42
2022/08/24 01:26:02;;;;;;;;;;;;;;;26.63;65.76;100726.28;5053282;28;1116;-41
2022/08/24 01:28:29;;;;;;;;;;;;;;;26.62;65.80;100723.78;5053106;28;1983;-41
2022/08/24 01:30:58;;;;;;;;;;;;;;;26.63;65.77;100728.94;5053349;28;1061;-41
2022/08/24 01:33:27;;;;;;;;;;;;;;;26.53;65.92;100729.94;5053417;28;1192;-44
2022/08/24 01:35:56;;;;;;;;;;;;;;;26.50;65.83;100736.41;5053137;28;1079;-41
2022/08/24 01:38:23;;;;;;;;;;;;;;;26.35;66.87;100745.78;5052810;28;1276;-39
2022/08/24 01:40:52;;;;;;;;;;;;;;;26.39;66.71;100739.19;5053163;28;1182;-43
2022/08/24 01:43:18;;;;;;;;;;;;;;;26.44;66.74;100736.09;5052946;28;1219;-42
2022/08/24 01:45:45;;;;;;;;;;;;;;;26.43;66.85;100726.41;5053067;28;1056;-43
2022/08/24 01:48:14;;;;;;;;;;;;;;;26.43;66.70;100729.06;5053004;28;1987;-40
2022/08/24 01:50:48;;;;;;;;;;;;;;;26.43;66.28;100732.59;5052991;28;1104;-42
2022/08/24 01:53:15;;;;;;;;;;;;;;;26.48;66.38;100741.03;5052849;28;1193;-41
2022/08/24 01:55:42;;;;;;;;;;;;;;;26.51;66.37;100730.06;5052689;28;1524;-44
2022/08/24 01:58:09;;;;;;;;;;;;;;;26.52;66.63;100725.56;5052126;28;1176;-43
2022/08/24 02:00:36;;;;;;;;;;;;;;;26.48;66.50;100727.66;5052696;28;1051;-40
2022/08/24 02:03:03;;;;;;;;;;;;;;;26.46;66.72;100728.78;5051460;28;1303;-43
2022/08/24 02:05:30;;;;;;;;;;;;;;;26.42;68.03;100733.56;5052789;28;1032;-39
2022/08/24 02:07:57;;;;;;;;;;;;;;;26.48;67.19;100734.81;5052657;28;1975;-43
2022/08/24 02:10:24;;;;;;;;;;;;;;;26.47;66.50;100726.00;5052691;28;1126;-39
2022/08/24 02:12:57;;;;;;;;;;;;;;;26.46;67.47;100729.63;5052489;28;1244;-38
2022/08/24 02:15:26;;;;;;;;;;;;;;;26.31;67.83;100731.00;5052693;28;1021;-38
2022/08/24 02:17:53;;;;;;;;;;;;;;;26.28;68.73;100731.28;5050420;28;1565;-38
2022/08/24 02:20:20;;;;;;;;;;;;;;;26.27;68.08;100726.91;5045531;28;1038;-40
2022/08/24 02:22:51;;;;;;;;;;;;;;;26.27;67.63;100726.06;5052821;28;1165;-38
2022/08/24 02:25:18;;;;;;;;;;;;;;;26.32;67.33;100721.19;5046459;28;1009;-40
2022/08/24 02:27:45;;;;;;;;;;;;;;;26.29;67.81;100721.44;5032597;28;1673;-40
2022/08/24 02:30:11;;;;;;;;;;;;;;;26.35;67.37;100720.91;5032583;28;1988;-40
2022/08/24 02:32:40;;;;;;;;;;;;;;;26.22;68.01;100715.81;5032519;28;1233;-39
2022/08/24 02:35:07;;;;;;;;;;;;;;;26.27;67.92;100718.06;5031642;28;1068;-43
2022/08/24 02:37:34;;;;;;;;;;;;;;;26.28;67.81;100714.41;5039747;28;1220;-43
2022/08/24 02:40:08;;;;;;;;;;;;;;;26.25;67.77;100715.53;5050609;28;1037;-41
2022/08/24 02:42:35;;;;;;;;;;;;;;;26.25;68.19;100704.84;5050449;28;1272;-46
2022/08/24 02:45:03;;;;;;;;;;;;;;;26.20;68.12;100714.25;5050002;28;902;-42
2022/08/24 02:47:29;;;;;;;;;;;;;;;26.24;68.20;100710.31;5049215;28;1213;-42
2022/08/24 02:50:05;;;;;;;;;;;;;;;26.23;68.37;100708.66;5048329;28;1977;-40
2022/08/24 02:52:32;;;;;;;;;;;;;;;26.25;68.46;100717.34;5048707;28;1209;-40
2022/08/24 02:54:58;;;;;;;;;;;;;;;26.23;68.08;100709.50;5048426;28;1534;-40
2022/08/24 02:57:25;;;;;;;;;;;;;;;26.26;67.74;100711.03;5049053;28;1271;-41
2022/08/24 02:59:51;;;;;;;;;;;;;;;26.22;67.53;100709.63;5050516;28;1028;-40
2022/08/24 03:02:18;;;;;;;;;;;;;;;26.21;67.84;100713.25;5050568;28;1172;-41
2022/08/24 03:04:45;;;;;;;;;;;;;;;26.21;67.70;100705.25;5049957;28;1127;-39
2022/08/24 03:07:14;;;;;;;;;;;;;;;26.08;68.41;100700.16;5050681;28;1127;-39
2022/08/24 03:09:41;;;;;;;;;;;;;;;26.14;67.87;100709.44;5051600;28;1985;-43
2022/08/24 03:12:08;;;;;;;;;;;;;;;26.13;68.47;100705.91;5054455;28;1087;-39
2022/08/24 03:14:34;;;;;;;;;;;;;;;26.14;68.40;100707.63;5054223;28;1204;-38
2022/08/24 03:17:01;;;;;;;;;;;;;;;26.13;68.28;100699.72;5055021;28;1400;-44
2022/08/24 03:19:28;;;;;;;;;;;;;;;26.15;68.17;100697.75;5055857;28;1296;-40
2022/08/24 03:21:55;;;;;;;;;;;;;;;26.16;68.30;100697.66;5055848;28;1147;-39
2022/08/24 03:24:22;;;;;;;;;;;;;;;26.14;68.47;100699.59;5054385;28;1280;-39
2022/08/24 03:26:49;;;;;;;;;;;;;;;26.15;68.14;100697.75;5055922;28;1045;-38
2022/08/24 03:29:15;;;;;;;;;;;;;;;26.09;68.63;100697.31;5055248;28;1914;-38
2022/08/24 03:31:42;;;;;;;;;;;;;;;26.13;68.42;100695.22;5055492;28;1027;-39
2022/08/24 03:34:12;;;;;;;;;;;;;;;26.13;68.16;100689.91;5055461;28;1284;-40
2022/08/24 03:36:40;;;;;;;;;;;;;;;26.20;67.56;100695.56;5055279;28;1101;-45
2022/08/24 03:39:06;;;;;;;;;;;;;;;26.21;67.73;100691.91;5055271;28;1212;-40
2022/08/24 03:41:33;;;;;;;;;;;;;;;26.13;67.61;100692.56;5055459;28;1130;-41
2022/08/24 03:44:02;;;;;;;;;;;;;;;26.14;68.08;100690.75;5055273;28;1177;-41
2022/08/24 03:46:31;;;;;;;;;;;;;;;26.08;67.91;100689.47;5055505;28;1274;-43
2022/08/24 03:48:58;;;;;;;;;;;;;;;26.12;68.02;100690.00;5055160;28;1913;-40
2022/08/24 03:51:25;;;;;;;;;;;;;;;26.09;68.07;100686.66;5055270;28;1059;-39
2022/08/24 03:53:52;;;;;;;;;;;;;;;26.13;67.92;100684.56;5054983;28;1471;-40
2022/08/24 03:56:19;;;;;;;;;;;;;;;26.01;68.63;100691.84;5055474;28;1125;-38
2022/08/24 03:58:46;;;;;;;;;;;;;;;26.03;68.37;100689.84;5054576;28;1224;-38
2022/08/24 04:01:13;;;;;;;;;;;;;;;26.16;67.63;100692.31;5054978;28;1666;-41
2022/08/24 04:03:42;;;;;;;;;;;;;;;26.23;67.58;100690.81;5054711;28;1236;-41
2022/08/24 04:06:09;;;;;;;;;;;;;;;26.14;68.06;100693.41;5054887;28;1322;-44
2022/08/24 04:08:38;;;;;;;;;;;;;;;26.04;68.16;100688.91;5054796;28;1914;-41
2022/08/24 04:11:05;;;;;;;;;;;;;;;26.07;68.47;100685.94;5054821;28;1094;-41
2022/08/24 04:13:31;;;;;;;;;;;;;;;26.03;68.44;100684.53;5054652;28;1284;-39
2022/08/24 04:16:03;;;;;;;;;;;;;;;26.08;67.93;100695.63;5054821;28;1005;-41
2022/08/24 04:18:30;;;;;;;;;;;;;;;26.00;68.02;100695.47;5054698;28;1300;-39
2022/08/24 04:20:57;;;;;;;;;;;;;;;25.99;68.21;100690.28;5053405;28;1137;-40
2022/08/24 04:23:24;;;;;;;;;;;;;;;26.06;67.87;100694.06;5054235;28;1295;-39
2022/08/24 04:26:10;;;;;;;;;;;;;;;26.01;67.98;100702.50;5054418;28;2347;-39
2022/08/24 04:28:37;;;;;;;;;;;;;;;26.01;67.57;100701.66;5054375;28;1992;-39
2022/08/24 04:31:04;;;;;;;;;;;;;;;26.01;67.76;100699.00;5054397;28;1439;-38
2022/08/24 04:33:31;;;;;;;;;;;;;;;25.99;67.32;100700.97;5054521;28;1162;-39
2022/08/24 04:35:58;;;;;;;;;;;;;;;25.96;67.54;100703.91;5054438;28;1056;-39
2022/08/24 04:38:25;;;;;;;;;;;;;;;25.99;67.07;100701.78;5054385;28;1225;-38
2022/08/24 04:40:52;;;;;;;;;;;;;;;26.00;67.21;100699.97;5054475;28;1041;-38
2022/08/24 04:43:19;;;;;;;;;;;;;;;25.99;67.63;100706.28;5054091;28;1326;-38
2022/08/24 04:45:46;;;;;;;;;;;;;;;25.95;67.60;100707.53;5054192;28;1048;-39
2022/08/24 04:48:14;;;;;;;;;;;;;;;26.03;67.09;100705.03;5054134;28;1296;-39
2022/08/24 04:50:42;;;;;;;;;;;;;;;26.04;67.01;100702.25;5054221;28;1981;-39
2022/08/24 04:53:09;;;;;;;;;;;;;;;26.03;66.25;100705.03;5054001;28;1256;-39
2022/08/24 04:55:43;;;;;;;;;;;;;;;26.01;66.33;100694.50;5053542;28;1363;-39
2022/08/24 04:58:11;;;;;;;;;;;;;;;26.02;66.44;100698.84;5053701;28;1272;-39
2022/08/24 05:00:38;;;;;;;;;;;;;;;25.92;66.84;100703.31;5053715;28;1117;-40
2022/08/24 05:03:05;;;;;;;;;;;;;;;25.89;67.20;100700.91;5053739;28;1225;-40
2022/08/24 05:05:32;;;;;;;;;;;;;;;25.90;67.23;100707.91;5053969;28;1222;-40
2022/08/24 05:07:58;;;;;;;;;;;;;;;25.88;67.74;100709.91;5053701;28;1220;-39
2022/08/24 05:10:25;;;;;;;;;;;;;;;25.89;67.72;100710.75;5053793;28;1909;-40
2022/08/24 05:12:59;;;;;;;;;;;;;;;25.89;67.94;100713.41;5053706;28;1385;-39
2022/08/24 05:15:25;;;;;;;;;;;;;;;25.82;68.44;100709.56;5053441;28;1249;-39
2022/08/24 05:17:52;;;;;;;;;;;;;;;25.81;68.44;100713.22;5053341;28;1197;-38
2022/08/24 05:20:19;;;;;;;;;;;;;;;25.81;68.96;100711.41;5040863;28;1556;-40
2022/08/24 05:22:45;;;;;;;;;;;;;;;25.82;68.58;100718.44;5033244;28;1284;-39
2022/08/24 05:25:12;;;;;;;;;;;;;;;25.82;68.82;100714.91;5033426;28;1084;-41
2022/08/24 05:27:39;;;;;;;;;;;;;;;25.84;68.91;100720.97;5042957;28;1335;-42
2022/08/24 05:30:05;;;;;;;;;;;;;;;25.83;69.03;100721.94;5053157;28;1981;-38
2022/08/24 05:32:32;;;;;;;;;;;;;;;25.87;69.00;100720.72;5053060;28;1235;-39
2022/08/24 05:35:00;;;;;;;;;;;;;;;25.86;69.10;100727.03;5052438;28;792;-40
2022/08/24 05:37:26;;;;;;;;;;;;;;;25.85;69.01;100723.50;5051065;28;1284;-43
2022/08/24 05:39:53;;;;;;;;;;;;;;;25.91;68.98;100720.31;5049736;28;1063;-44
2022/08/24 05:42:20;;;;;;;;;;;;;;;25.94;68.67;100725.38;5050988;28;1358;-45
2022/08/24 05:44:46;;;;;;;;;;;;;;;25.90;68.24;100720.44;5052712;28;1092;-41
2022/08/24 05:47:13;;;;;;;;;;;;;;;25.91;67.99;100717.63;5053168;28;1057;-40
2022/08/24 05:49:39;;;;;;;;;;;;;;;25.92;67.99;100718.47;5051129;28;1983;-46
2022/08/24 05:52:07;;;;;;;;;;;;;;;25.91;68.88;100722.13;5053105;28;1269;-40
2022/08/24 05:54:34;;;;;;;;;;;;;;;25.98;68.56;100716.13;5052546;28;1429;-45
2022/08/24 05:57:03;;;;;;;;;;;;;;;26.03;67.20;100721.03;5052913;28;1103;-42
2022/08/24 05:59:30;;;;;;;;;;;;;;;26.06;67.15;100720.78;5052528;28;1201;-44
2022/08/24 06:01:57;;;;;;;;;;;;;;;26.11;66.71;100726.56;5052506;28;1117;-43
2022/08/24 06:04:25;;;;;;;;;;;;;;;26.18;66.78;100729.56;5052623;28;1286;-40
2022/08/24 06:06:52;;;;;;;;;;;;;;;26.21;67.04;100729.28;5051403;28;1040;-43
2022/08/24 06:09:18;;;;;;;;;;;;;;;26.20;67.47;100736.47;5052613;28;1910;-42
2022/08/24 06:11:46;;;;;;;;;;;;;;;26.16;67.69;100736.84;5052252;28;1036;-40
2022/08/24 06:14:14;;;;;;;;;;;;;;;26.22;67.22;100745.19;5052282;28;1266;-43
2022/08/24 06:16:43;;;;;;;;;;;;;;;26.24;67.52;100742.34;5052640;28;1030;-41
2022/08/24 06:19:12;;;;;;;;;;;;;;;26.29;67.63;100737.47;5052556;28;1300;-42
2022/08/24 06:21:39;;;;;;;;;;;;;;;26.35;66.72;100743.13;5052106;28;1134;-39
2022/08/24 06:24:06;;;;;;;;;;;;;;;26.32;67.06;100732.72;5051092;28;1303;-41
2022/08/24 06:29:35;;;;;;;;;;;;;;;26.41;66.81;100731.03;5029468;28;1919;-43
2022/08/24 06:32:01;;;;;;;;;;;;;;;26.42;66.68;100736.22;5047855;28;1085;-41
2022/08/24 06:34:29;;;;;;;;;;;;;;;26.45;66.43;100732.44;5052415;28;1288;-42
2022/08/24 06:36:56;;;;;;;;;;;;;;;26.46;66.21;100734.97;5052478;28;1040;-39
2022/08/24 06:39:22;;;;;;;;;;;;;;;26.49;66.55;100734.72;5052206;28;1201;-42
2022/08/24 06:41:50;;;;;;;;;;;;;;;26.55;66.15;100728.81;5051834;28;1053;-39
2022/08/24 06:44:17;;;;;;;;;;;;;;;26.55;65.80;100734.16;5052429;28;1213;-39
2022/08/24 06:46:44;;;;;;;;;;;;;;;26.62;66.23;100729.13;5056284;28;1021;-39
2022/08/24 06:49:11;;;;;;;;;;;;;;;26.59;65.03;100737.41;5056005;28;1914;-40
2022/08/24 06:51:37;;;;;;;;;;;;;;;26.60;64.33;100725.72;5055816;28;1121;-39
2022/08/24 06:54:04;;;;;;;;;;;;;;;26.66;65.23;100724.34;5055347;28;1403;-41
2022/08/24 06:56:31;;;;;;;;;;;;;;;26.70;65.21;100720.38;5056012;28;1121;-41
2022/08/24 06:58:59;;;;;;;;;;;;;;;26.77;64.38;100726.88;5054649;28;1242;-38
2022/08/24 07:01:27;;;;;;;;;;;;;;;26.82;62.58;100722.81;5055213;28;1119;-39
2022/08/24 07:03:54;;;;;;;;;;;;;;;26.81;61.04;100728.31;5074805;28;1256;-38
2022/08/24 07:06:22;;;;;;;;;;;;;;;26.85;62.81;100730.56;5076208;28;1041;-39
2022/08/24 07:08:49;;;;;;;;;;;;;;;26.87;61.08;100731.25;5064878;28;1233;-42
2022/08/24 07:11:16;;;;;;;;;;;;;;;26.88;63.14;100732.09;5055295;28;1979;-39
2022/08/24 07:13:46;;;;;;;;;;;;;;;26.89;63.50;100731.13;5072975;28;1274;-38
2022/08/24 07:16:13;;;;;;;;;;;;;;;26.92;62.91;100731.69;5075552;28;1100;-39
2022/08/24 07:18:40;;;;;;;;;;;;;;;26.92;62.69;100728.19;5075247;28;1322;-41
2022/08/24 07:21:12;;;;;;;;;;;;;;;26.96;62.64;100727.75;5059118;28;1108;-39
2022/08/24 07:23:39;;;;;;;;;;;;;;;26.97;62.26;100734.78;5055064;28;1242;-43
2022/08/24 07:26:09;;;;;;;;;;;;;;;27.02;62.78;100729.03;5070863;28;1064;-40
2022/08/24 07:28:46;;;;;;;;;;;;;;;27.02;62.11;100729.84;5062226;28;1328;-39
2022/08/24 07:31:14;;;;;;;;;;;;;;;27.05;62.22;100736.78;5054657;28;1918;-44
2022/08/24 07:33:40;;;;;;;;;;;;;;;27.07;61.78;100734.78;5054618;28;1301;-41
2022/08/24 07:36:07;;;;;;;;;;;;;;;27.11;61.59;100738.88;5070774;28;1276;-39
2022/08/24 07:38:34;;;;;;;;;;;;;;;27.13;57.52;100739.56;5074929;28;1201;-40
2022/08/24 07:41:00;;;;;;;;;;;;;;;27.13;59.89;100739.56;5074635;28;1103;-42
2022/08/24 07:43:48;;;;;;;;;;;;;;;27.14;58.89;100735.91;5074009;28;2220;-36
2022/08/24 07:46:14;;;;;;;;;;;;;;;27.21;61.11;100739.69;5064200;28;1417;-41
2022/08/24 07:48:41;;;;;;;;;;;;;;;27.24;61.01;100742.09;5066193;28;1223;-42
2022/08/24 07:51:09;;;;;;;;;;;;;;;27.26;58.24;100733.94;5065564;28;1922;-44
2022/08/24 07:53:36;;;;;;;;;;;;;;;27.25;60.78;100737.59;5072764;28;1510;-40
2022/08/24 07:56:19;;;;;;;;;;;;;;;27.27;61.20;100746.31;5073905;28;1134;-40
2022/08/24 07:58:46;;;;;;;;;;;;;;;27.28;60.55;100739.97;5068618;28;1208;-41
2022/08/24 08:01:12;;;;;;;;;;;;;;;27.40;59.62;100749.53;5070671;28;1157;-37
2022/08/24 08:03:40;;;;;;;;;;;;;;;27.39;59.60;100745.19;5074639;28;1190;-44
2022/08/24 08:06:07;;;;;;;;;;;;;;;27.41;60.26;100746.72;5058394;28;1293;-43
2022/08/24 08:08:42;;;;;;;;;;;;;;;27.41;61.58;100749.41;5048637;28;1429;-37
2022/08/24 08:11:09;;;;;;;;;;;;;;;27.41;61.29;100749.41;5069894;28;1914;-40
2022/08/24 08:13:36;;;;;;;;;;;;;;;27.54;59.63;100749.13;5074037;28;1204;-39
2022/08/24 08:16:03;;;;;;;;;;;;;;;27.55;60.67;100754.31;5074498;28;1104;-38
2022/08/24 08:18:34;;;;;;;;;;;;;;;27.66;60.08;100754.16;5073995;28;1280;-40
2022/08/24 08:21:02;;;;;;;;;;;;;;;27.65;61.00;100751.63;5074148;28;1100;-41
2022/08/24 08:26:15;;;;;;;;;;;;;;;27.63;60.58;100754.44;5055316;28;1254;-39
2022/08/24 08:28:41;;;;;;;;;;;;;;;27.69;59.58;100758.38;5056885;28;1229;-41
2022/08/24 08:31:08;;;;;;;;;;;;;;;27.72;59.20;100759.94;5054503;28;1995;-40
2022/08/24 08:33:37;;;;;;;;;;;;;;;27.64;61.01;100758.81;5055709;28;1268;-42
2022/08/24 08:36:06;;;;;;;;;;;;;;;27.63;60.76;100762.47;5054593;28;1053;-42
2022/08/24 08:38:33;;;;;;;;;;;;;;;27.72;60.52;100759.94;5055303;28;1354;-41
2022/08/24 08:41:27;;;;;;;;;;;;;;;27.69;60.71;100761.06;5054338;28;1056;-39
2022/08/24 08:44:00;;;;;;;;;;;;;;;27.67;60.92;100766.53;5060540;28;1792;-41
2022/08/24 08:46:59;;;;;;;;;;;;;;;27.75;59.89;100757.81;5066656;28;1644;-42
2022/08/24 08:49:45;;;;;;;;;;;;;;;27.81;60.44;100767.09;5040077;28;1301;-40
2022/08/24 08:52:23;;;;;;;;;;;;;;;27.81;59.09;100764.41;5073492;28;1126;-38
2022/08/24 08:55:08;;;;;;;;;;;;;;;27.83;59.78;100770.44;5051510;28;1659;-40
2022/08/24 08:57:41;;;;;;;;;;;;;;;27.91;59.36;100766.03;5048720;28;1386;-40
2022/08/24 09:00:08;;;;;;;;;;;;;;;27.91;60.16;100765.19;5053133;28;1123;-42
2022/08/24 09:02:59;;;;;;;;;;;;;;;27.95;58.63;100763.94;5049872;28;1499;-41
2022/08/24 09:05:32;;;;;;;;;;;;;;;27.89;59.10;100776.06;5051009;28;1093;-40
2022/08/24 09:08:01;;;;;;;;;;;;;;;27.95;57.88;100774.63;5051844;28;1268;-43
2022/08/24 09:10:32;;;;;;;;;;;;;;;28.06;56.75;100774.47;5053331;28;1903;-44
2022/08/24 09:13:06;;;;;;;;;;;;;;;27.94;58.92;100772.94;5066640;28;1228;-40
2022/08/24 09:15:52;;;;;;;;;;;;;;;28.04;56.08;100769.28;5059380;28;1094;-38
2022/08/24 09:18:25;;;;;;;;;;;;;;;28.00;57.77;100772.34;5070036;28;1274;-40
2022/08/24 09:21:04;;;;;;;;;;;;;;;27.97;59.03;100772.66;5072231;28;1114;-39
2022/08/24 09:23:31;;;;;;;;;;;;;;;28.04;55.38;100768.41;5050516;28;1370;-38
2022/08/24 09:26:17;;;;;;;;;;;;;;;27.99;58.61;100768.00;5050277;28;1064;-39
2022/08/24 09:28:52;;;;;;;;;;;;;;;28.05;58.50;100764.78;5040302;28;1389;-42
2022/08/24 09:31:25;;;;;;;;;;;;;;;28.00;59.18;100767.84;5051796;28;1974;-36
2022/08/24 09:33:55;;;;;;;;;;;;;;;28.10;58.60;100762.50;5069210;28;1291;-36
2022/08/24 09:36:39;;;;;;;;;;;;;;;28.17;57.06;100767.13;5070699;28;1014;-37
2022/08/24 09:39:21;;;;;;;;;;;;;;;28.11;58.96;100767.72;5052982;28;1351;-48
2022/08/24 09:42:02;;;;;;;;;;;;;;;28.16;57.93;100761.91;5051103;28;1068;-36
2022/08/24 09:44:47;;;;;;;;;;;;;;;28.14;58.06;100766.56;5048571;28;1260;-35
2022/08/24 09:47:23;;;;;;;;;;;;;;;28.26;55.89;100761.84;5051455;28;1617;-42
2022/08/24 09:49:50;;;;;;;;;;;;;;;28.19;57.53;100761.59;5067164;28;1906;-36
2022/08/24 09:52:30;;;;;;;;;;;;;;;28.18;57.07;100755.41;5059679;28;1184;-37
2022/08/24 09:55:16;;;;;;;;;;;;;;;28.18;57.33;100759.91;5046971;28;1373;-42
2022/08/24 09:57:51;;;;;;;;;;;;;;;28.28;56.28;100755.34;5062586;28;1334;-40
2022/08/24 10:00:36;;;;;;;;;;;;;;;28.32;54.42;100753.22;5059124;28;1111;-43
2022/08/24 10:03:12;;;;;;;;;;;;;;;28.45;54.54;100757.25;5066873;28;1292;-40
2022/08/24 10:05:58;;;;;;;;;;;;;;;28.51;53.05;100756.66;5071691;28;1134;-41
2022/08/24 10:08:34;;;;;;;;;;;;;;;28.59;53.30;100759.41;5064727;28;1351;-38
2022/08/24 10:11:05;;;;;;;;;;;;;;;28.74;53.13;100757.94;5071755;28;1972;-39
2022/08/24 10:13:41;;;;;;;;;;;;;;;28.59;54.05;100758.56;5064889;28;1213;-40
2022/08/24 10:16:18;;;;;;;;;;;;;;;28.61;54.75;100756.56;5071178;28;1135;-39
2022/08/24 10:19:03;;;;;;;;;;;;;;;28.61;55.48;100753.88;5047109;28;1249;-41
2022/08/24 10:21:37;;;;;;;;;;;;;;;28.63;54.57;100751.91;5051706;28;1543;-45
2022/08/24 10:24:12;;;;;;;;;;;;;;;28.76;53.97;100747.03;5064863;28;1278;-42
2022/08/24 10:26:53;;;;;;;;;;;;;;;28.57;56.64;100747.16;5055016;28;1068;-40
2022/08/24 10:29:21;;;;;;;;;;;;;;;28.68;55.54;100747.81;5066280;28;1284;-45
2022/08/24 10:32:06;;;;;;;;;;;;;;;28.67;55.71;100746.13;5066645;28;1975;-42
2022/08/24 10:34:46;;;;;;;;;;;;;;;28.70;55.38;100751.19;5065999;28;1229;-41
2022/08/24 10:37:16;;;;;;;;;;;;;;;28.82;55.14;100742.94;5063235;28;1304;-46
2022/08/24 10:40:01;;;;;;;;;;;;;;;28.56;56.87;100749.00;5067259;28;1328;-42
2022/08/24 10:45:35;;;;;;;;;;;;;;;28.84;55.80;100746.28;5051912;28;1153;-40
2022/08/24 10:48:21;;;;;;;;;;;;;;;28.88;56.46;100750.38;5056989;28;1365;-36
2022/08/24 10:50:56;;;;;;;;;;;;;;;28.98;55.03;100749.28;5053730;28;1995;-44
2022/08/24 10:53:26;;;;;;;;;;;;;;;29.09;55.26;100748.22;5056234;28;1311;-35
2022/08/24 10:56:04;;;;;;;;;;;;;;;28.84;56.40;100747.16;5054140;28;1612;-37
2022/08/24 10:58:43;;;;;;;;;;;;;;;28.91;57.17;100742.84;5052408;28;1335;-39
2022/08/24 11:01:15;;;;;;;;;;;;;;;29.04;53.67;100740.63;5053125;28;1136;-42
2022/08/24 11:03:51;;;;;;;;;;;;;;;29.03;55.44;100741.59;5056317;28;1268;-39
2022/08/24 11:06:19;;;;;;;;;;;;;;;29.08;53.78;100736.66;5054229;28;1147;-37
2022/08/24 11:08:52;;;;;;;;;;;;;;;29.15;55.25;100736.88;5065221;28;1256;-39
2022/08/24 11:11:23;;;;;;;;;;;;;;;29.07;55.83;100736.78;5055511;28;1902;-39
2022/08/24 11:14:01;;;;;;;;;;;;;;;29.10;55.15;100736.47;5064146;28;1331;-39
2022/08/24 11:16:31;;;;;;;;;;;;;;;29.12;54.12;100731.81;5048732;28;1088;-38
2022/08/24 11:18:59;;;;;;;;;;;;;;;29.15;55.06;100731.50;5052919;28;1445;-40
2022/08/24 11:21:39;;;;;;;;;;;;;;;29.36;53.35;100731.19;5052065;28;1104;-39
2022/08/24 11:24:32;;;;;;;;;;;;;;;29.29;54.59;100730.97;5052599;28;1299;-42
2022/08/24 11:27:01;;;;;;;;;;;;;;;28.98;56.40;100732.34;5053458;28;1151;-39
2022/08/24 11:29:48;;;;;;;;;;;;;;;29.09;56.27;100735.63;5054702;28;1288;-44
2022/08/24 11:32:25;;;;;;;;;;;;;;;29.32;54.66;100730.66;5059889;28;1907;-43
2022/08/24 11:34:52;;;;;;;;;;;;;;;29.26;56.45;100731.28;5061028;28;1144;-39
2022/08/24 11:37:29;;;;;;;;;;;;;;;29.13;57.07;100730.81;5065315;28;1069;-38
2022/08/24 11:39:56;;;;;;;;;;;;;;;29.26;55.78;100725.91;5055348;28;1584;-36
2022/08/24 11:42:35;;;;;;;;;;;;;;;29.35;55.44;100718.75;5056327;28;1303;-39
2022/08/24 11:45:05;;;;;;;;;;;;;;;29.35;55.62;100730.34;5057970;28;1243;-36
2022/08/24 11:47:31;;;;;;;;;;;;;;;29.17;56.36;100724.13;5059483;28;1300;-38
2022/08/24 11:50:02;;;;;;;;;;;;;;;29.54;54.24;100715.88;5068087;28;1088;-36
2022/08/24 11:52:38;;;;;;;;;;;;;;;29.49;54.47;100727.09;5057201;28;1929;-36
2022/08/24 11:55:07;;;;;;;;;;;;;;;29.48;54.88;100729.94;5055641;28;1451;-36
2022/08/24 11:57:42;;;;;;;;;;;;;;;29.44;54.68;100729.41;5051217;28;1453;-49
2022/08/24 12:00:17;;;;;;;;;;;;;;;29.99;51.01;100715.66;5056551;28;1402;-50
2022/08/24 12:03:00;;;;;;;;;;;;;;;30.35;48.07;100719.81;5063554;28;1284;-50
2022/08/24 12:05:27;;;;;;;;;;;;;;;30.10;49.91;100724.25;5068285;28;1053;-50
2022/08/24 12:08:02;;;;;;;;;;;;;;;30.20;50.53;100733.03;5064082;28;1290;-46
2022/08/24 12:10:36;;;;;;;;;;;;;;;30.18;49.30;100718.09;5053677;28;1983;-48
2022/08/24 12:13:02;;;;;;;;;;;;;;;30.43;47.98;100722.56;5051286;28;1282;-53
2022/08/24 12:15:33;;;;;;;;;;;;;;;30.28;46.48;100729.53;5046669;28;1128;-45
2022/08/24 12:18:03;;;;;;;;;;;;;;;30.24;47.03;100717.44;5061489;28;1264;-46
2022/08/24 12:20:31;;;;;;;;;;;;;;;30.32;45.67;100721.00;5048613;28;1512;-51
2022/08/24 12:23:10;;;;;;;;;;;;;;;30.41;45.17;100724.59;5062713;28;1391;-49
2022/08/24 12:28:28;;;;;;;;;;;;;;;30.49;46.32;100713.03;5057941;28;1316;-50
2022/08/24 12:30:58;;;;;;;;;;;;;;;30.40;45.67;100719.38;5054237;28;1930;-46
2022/08/24 12:33:28;;;;;;;;;;;;;;;30.42;47.91;100714.69;5062778;28;1336;-46
2022/08/24 12:35:59;;;;;;;;;;;;;;;30.43;48.05;100717.19;5065790;28;1103;-47
2022/08/24 12:38:38;;;;;;;;;;;;;;;30.39;47.88;100710.47;5059243;28;1394;-45
2022/08/24 12:41:11;;;;;;;;;;;;;;;30.31;48.71;100716.63;5056795;28;1116;-51
2022/08/24 12:43:47;;;;;;;;;;;;;;;30.35;47.00;100715.31;5054454;28;1402;-44
2022/08/24 12:46:19;;;;;;;;;;;;;;;30.34;47.13;100715.44;5054182;28;1108;-41
2022/08/24 12:48:46;;;;;;;;;;;;;;;30.34;48.32;100712.75;5051415;28;1419;-39
2022/08/24 12:51:13;;;;;;;;;;;;;;;30.37;48.20;100712.44;5053869;28;1914;-40
2022/08/24 12:53:46;;;;;;;;;;;;;;;30.38;48.86;100713.28;5056350;28;1442;-41
2022/08/24 12:56:33;;;;;;;;;;;;;;;30.41;48.59;100708.44;5053336;28;1042;-38
2022/08/24 12:59:16;;;;;;;;;;;;;;;30.52;48.38;100708.13;5049498;28;1356;-41
2022/08/24 13:01:55;;;;;;;;;;;;;;;30.56;49.44;100714.88;5057504;28;1157;-40
2022/08/24 13:04:35;;;;;;;;;;;;;;;30.43;49.26;100717.19;5048973;28;1378;-43
2022/08/24 13:07:08;;;;;;;;;;;;;;;30.48;49.10;100719.41;5055748;28;1172;-47
2022/08/24 13:09:37;;;;;;;;;;;;;;;30.50;48.83;100707.47;5051357;28;1315;-43
2022/08/24 13:12:22;;;;;;;;;;;;;;;30.48;49.90;100706.81;5062763;28;1992;-46
2022/08/24 13:14:53;;;;;;;;;;;;;;;30.38;49.86;100708.75;5061640;28;1246;-45
2022/08/24 13:17:38;;;;;;;;;;;;;;;30.18;50.30;100702.81;5059594;28;1854;-40
2022/08/24 13:20:17;;;;;;;;;;;;;;;30.39;50.07;100702.41;5058062;28;1139;-44